createdAt,value
2019-01-21T00:00:32.109Z,22.93
2019-01-21T00:03:01.318Z,22.27
2019-01-21T00:05:29.491Z,22.07
2019-01-21T00:07:58.101Z,23.17
2019-01-21T00:10:26.653Z,22.23
2019-01-21T00:12:55.293Z,22.50
2019-01-21T00:15:26.632Z,22.43
2019-01-21T00:17:55.514Z,21.63
2019-01-21T00:20:26.612Z,20.97
2019-01-21T00:22:55.820Z,21.27
2019-01-21T00:25:24.341Z,22.33
2019-01-21T00:27:53.252Z,23.27
2019-01-21T00:30:23.260Z,21.47
2019-01-21T00:32:51.766Z,19.97
2019-01-21T00:35:22.790Z,20.10
2019-01-21T00:37:51.361Z,19.20
2019-01-21T00:40:20.113Z,20.57
2019-01-21T00:42:48.597Z,19.03
2019-01-21T00:45:17.216Z,19.53
2019-01-21T00:47:45.732Z,19.20
2019-01-21T00:50:14.642Z,18.30
2019-01-21T00:52:43.258Z,19.63
2019-01-21T00:55:13.511Z,19.43
2019-01-21T00:57:42.076Z,17.90
2019-01-21T01:00:19.390Z,18.43
2019-01-21T01:02:48.073Z,18.90
2019-01-21T01:05:17.583Z,17.67
2019-01-21T01:07:46.145Z,17.20
2019-01-21T01:10:14.779Z,17.43
2019-01-21T01:12:43.606Z,19.20
2019-01-21T01:15:13.829Z,16.60
2019-01-21T01:17:42.337Z,18.40
2019-01-21T01:20:13.524Z,17.07
2019-01-21T01:22:41.790Z,17.77
2019-01-21T01:25:11.045Z,17.27
2019-01-21T01:27:39.534Z,16.73
2019-01-21T01:30:13.574Z,17.10
2019-01-21T01:32:42.099Z,17.60
2019-01-21T01:35:12.028Z,17.07
2019-01-21T01:37:41.090Z,16.37
2019-01-21T01:40:14.738Z,17.77
2019-01-21T01:42:42.961Z,16.90
2019-01-21T01:45:19.022Z,17.10
2019-01-21T01:47:50.495Z,16.27
2019-01-21T01:50:19.067Z,15.53
2019-01-21T01:52:47.829Z,16.97
2019-01-21T01:55:16.407Z,16.67
2019-01-21T01:57:45.068Z,16.63
2019-01-21T02:00:15.713Z,16.57
2019-01-21T02:02:44.291Z,16.43
2019-01-21T02:05:12.912Z,16.90
2019-01-21T02:07:41.533Z,16.63
2019-01-21T02:10:13.500Z,17.10
2019-01-21T02:12:42.914Z,16.37
2019-01-21T02:15:14.656Z,15.43
2019-01-21T02:17:42.910Z,17.03
2019-01-21T02:20:15.471Z,16.10
2019-01-21T02:22:46.004Z,15.77
2019-01-21T02:25:14.957Z,17.20
2019-01-21T02:27:53.815Z,16.63
2019-01-21T02:30:43.550Z,14.73
2019-01-21T02:33:30.375Z,15.47
2019-01-21T02:36:00.095Z,16.23
2019-01-21T02:38:51.193Z,16.63
2019-01-21T02:41:25.907Z,15.63
2019-01-21T02:44:04.732Z,15.23
2019-01-21T02:46:42.849Z,17.57
2019-01-21T02:49:29.481Z,17.23
2019-01-21T02:52:22.093Z,16.47
2019-01-21T02:55:00.952Z,15.70
2019-01-21T02:57:38.399Z,15.40
2019-01-21T03:00:10.115Z,15.57
2019-01-21T03:02:46.538Z,14.93
2019-01-21T03:05:51.225Z,16.10
2019-01-21T03:08:32.207Z,16.47
2019-01-21T03:11:09.736Z,15.83
2019-01-21T03:13:44.310Z,15.97
2019-01-21T03:16:21.426Z,15.27
2019-01-21T03:19:16.049Z,15.83
2019-01-21T03:22:16.352Z,14.90
2019-01-21T03:24:59.738Z,15.70
2019-01-21T03:27:53.714Z,15.83
2019-01-21T03:31:01.953Z,15.47
2019-01-21T03:33:51.523Z,15.87
2019-01-21T03:36:52.299Z,16.07
2019-01-21T03:39:43.262Z,14.73
2019-01-21T03:42:21.802Z,14.57
2019-01-21T03:44:56.205Z,16.77
2019-01-21T03:47:36.756Z,16.27
2019-01-21T03:50:29.670Z,16.27
2019-01-21T03:53:01.274Z,15.37
2019-01-21T03:55:30.493Z,15.90
2019-01-21T03:58:17.223Z,15.97
2019-01-21T04:01:05.369Z,17.13
2019-01-21T04:04:08.731Z,16.37
2019-01-21T04:06:40.340Z,16.13
2019-01-21T04:09:29.471Z,16.80
2019-01-21T04:12:04.129Z,16.17
2019-01-21T04:14:55.647Z,16.27
2019-01-21T04:17:36.590Z,16.70
2019-01-21T04:20:20.572Z,17.00
2019-01-21T04:23:23.655Z,17.67
2019-01-21T04:26:09.969Z,15.97
2019-01-21T04:28:41.610Z,15.33
2019-01-21T04:31:15.685Z,16.33
2019-01-21T04:33:47.322Z,15.90
2019-01-21T04:36:25.723Z,15.37
2019-01-21T04:38:57.768Z,16.63
2019-01-21T04:41:38.177Z,16.93
2019-01-21T04:44:30.638Z,17.70
2019-01-21T04:47:35.487Z,16.73
2019-01-21T04:50:31.290Z,15.90
2019-01-21T04:53:26.713Z,17.37
2019-01-21T04:56:01.035Z,16.37
2019-01-21T04:58:50.617Z,17.87
2019-01-21T05:01:22.195Z,17.63
2019-01-21T05:04:06.009Z,17.30
2019-01-21T05:06:53.916Z,17.67
2019-01-21T05:09:34.259Z,17.43
2019-01-21T05:12:26.996Z,17.97
2019-01-21T05:15:09.310Z,17.37
2019-01-21T05:17:46.755Z,17.87
2019-01-21T05:20:34.550Z,19.93
2019-01-21T05:23:24.455Z,21.37
2019-01-21T05:26:02.038Z,19.90
2019-01-21T05:28:48.770Z,21.50
2019-01-21T05:31:37.074Z,19.73
2019-01-21T05:34:42.321Z,20.73
2019-01-21T05:37:39.990Z,20.87
2019-01-21T05:40:18.903Z,21.00
2019-01-21T05:43:05.947Z,20.40
2019-01-21T05:45:52.751Z,20.17
2019-01-21T05:48:33.304Z,20.83
2019-01-21T05:51:27.702Z,21.73
2019-01-21T05:53:57.384Z,20.60
2019-01-21T05:56:40.548Z,21.03
2019-01-21T05:59:21.042Z,21.53
2019-01-21T06:02:07.443Z,20.17
2019-01-21T06:04:54.384Z,19.77
2019-01-21T06:07:30.165Z,20.73
2019-01-21T06:09:59.851Z,20.40
2019-01-21T06:12:46.507Z,21.53
2019-01-21T06:15:19.815Z,20.87
2019-01-21T06:18:01.089Z,20.43
2019-01-21T06:20:33.452Z,19.77
2019-01-21T06:23:16.967Z,20.90
2019-01-21T06:25:52.331Z,20.37
2019-01-21T06:28:26.371Z,20.93
2019-01-21T06:31:13.087Z,20.37
2019-01-21T06:34:36.383Z,20.67
2019-01-21T06:37:33.664Z,20.33
2019-01-21T06:40:38.649Z,22.13
2019-01-21T06:43:16.349Z,20.17
2019-01-21T06:45:55.371Z,21.97
2019-01-21T06:48:29.414Z,20.90
2019-01-21T06:51:06.778Z,21.20
2019-01-21T06:53:57.835Z,22.17
2019-01-21T06:57:02.807Z,19.50
2019-01-21T07:00:24.417Z,21.43
2019-01-21T07:03:35.909Z,20.20
2019-01-21T07:06:29.940Z,21.00
2019-01-21T07:09:20.651Z,21.90
2019-01-21T07:12:08.171Z,21.47
2019-01-21T07:15:13.211Z,23.33
2019-01-21T07:18:07.241Z,22.33
2019-01-21T07:20:42.433Z,21.13
2019-01-21T07:23:19.895Z,21.60
2019-01-21T07:26:03.231Z,22.97
2019-01-21T07:28:40.950Z,22.13
2019-01-21T07:31:18.120Z,23.23
2019-01-21T07:34:06.164Z,24.17
2019-01-21T07:36:49.103Z,20.93
2019-01-21T07:39:23.448Z,22.37
2019-01-21T07:41:57.851Z,21.70
2019-01-21T07:44:32.395Z,22.30
2019-01-21T07:47:15.896Z,22.47
2019-01-21T07:50:17.130Z,21.63
2019-01-21T07:53:08.035Z,22.47
2019-01-21T07:55:56.333Z,21.60
2019-01-21T07:58:36.637Z,22.73
2019-01-21T08:01:11.176Z,23.77
2019-01-21T08:03:59.296Z,23.37
2019-01-21T08:06:30.882Z,22.07
2019-01-21T08:09:08.377Z,21.67
2019-01-21T08:11:41.074Z,23.00
2019-01-21T08:14:41.519Z,21.73
2019-01-21T08:17:22.105Z,23.53
2019-01-21T08:20:09.022Z,22.53
2019-01-21T08:22:56.752Z,22.77
2019-01-21T08:25:44.897Z,24.27
2019-01-21T08:28:22.426Z,22.47
2019-01-21T08:31:03.849Z,23.90
2019-01-21T08:33:41.159Z,23.40
2019-01-21T08:36:13.765Z,23.93
2019-01-21T08:38:54.177Z,23.37
2019-01-21T08:41:46.994Z,23.13
2019-01-21T08:44:34.783Z,22.07
2019-01-21T08:47:15.147Z,23.10
2019-01-21T08:49:47.701Z,22.97
2019-01-21T08:52:17.376Z,24.37
2019-01-21T08:54:47.083Z,24.97
2019-01-21T08:57:16.790Z,24.23
2019-01-21T08:59:49.744Z,22.67
2019-01-21T09:02:24.240Z,25.50
2019-01-21T09:04:58.651Z,23.83
2019-01-21T09:07:54.319Z,24.53
2019-01-21T09:10:53.807Z,24.37
2019-01-21T09:13:26.578Z,24.90
2019-01-21T09:16:09.888Z,24.93
2019-01-21T09:18:57.706Z,26.00
2019-01-21T09:21:29.815Z,25.20
2019-01-21T09:24:08.251Z,25.27
2019-01-21T09:26:40.650Z,24.60
2019-01-21T09:29:15.151Z,24.67
2019-01-21T09:32:04.117Z,26.93
2019-01-21T09:34:40.262Z,24.00
2019-01-21T09:37:26.330Z,25.60
2019-01-21T09:39:56.056Z,25.53
2019-01-21T09:42:33.550Z,24.67
2019-01-21T09:45:11.104Z,24.10
2019-01-21T09:47:38.522Z,24.90
2019-01-21T09:50:07.104Z,23.80
2019-01-21T09:52:37.783Z,25.57
2019-01-21T09:55:07.581Z,23.67
2019-01-21T09:57:35.946Z,25.83
2019-01-21T10:00:07.531Z,25.50
2019-01-21T10:02:37.749Z,23.87
2019-01-21T10:05:08.886Z,24.60
2019-01-21T10:07:40.557Z,25.47
2019-01-21T10:10:42.027Z,24.17
2019-01-21T10:13:28.451Z,25.13
2019-01-21T10:16:11.772Z,24.20
2019-01-21T10:19:04.332Z,23.77
2019-01-21T10:21:53.885Z,25.43
2019-01-21T10:24:42.435Z,24.30
2019-01-21T10:27:25.513Z,25.83
2019-01-21T10:29:58.204Z,25.23
2019-01-21T10:32:44.377Z,25.13
2019-01-21T10:35:27.953Z,26.30
2019-01-21T10:38:34.469Z,25.00
2019-01-21T10:41:07.048Z,24.13
2019-01-21T10:44:02.738Z,25.40
2019-01-21T10:46:34.343Z,24.80
2019-01-21T10:49:20.807Z,25.30
2019-01-21T10:52:04.192Z,24.47
2019-01-21T10:54:35.776Z,24.47
2019-01-21T10:57:22.490Z,24.60
2019-01-21T10:59:52.177Z,25.40
2019-01-21T11:02:26.819Z,26.30
2019-01-21T11:04:58.368Z,25.20
2019-01-21T11:07:30.536Z,25.00
2019-01-21T11:10:29.584Z,25.77
2019-01-21T11:13:06.631Z,23.97
2019-01-21T11:15:38.189Z,25.73
2019-01-21T11:18:18.643Z,25.80
2019-01-21T11:20:53.054Z,25.47
2019-01-21T11:23:42.787Z,27.07
2019-01-21T11:26:29.283Z,24.83
2019-01-21T11:29:03.600Z,25.60
2019-01-21T11:31:41.173Z,25.53
2019-01-21T11:34:29.197Z,26.47
2019-01-21T11:37:00.806Z,28.07
2019-01-21T11:39:43.950Z,26.07
2019-01-21T11:42:25.853Z,24.20
2019-01-21T11:45:18.869Z,24.77
2019-01-21T11:47:54.694Z,25.10
2019-01-21T11:50:38.695Z,24.97
2019-01-21T11:53:19.111Z,23.70
2019-01-21T11:55:56.337Z,23.80
2019-01-21T11:58:33.926Z,26.93
2019-01-21T12:01:12.543Z,25.93
2019-01-21T12:03:58.506Z,25.50
2019-01-21T12:06:28.180Z,27.73
2019-01-21T12:09:00.530Z,26.47
2019-01-21T12:11:39.140Z,25.60
2019-01-21T12:14:19.751Z,26.83
2019-01-21T12:17:21.092Z,24.90
2019-01-21T12:19:54.007Z,25.37
2019-01-21T12:22:24.455Z,26.37
2019-01-21T12:24:54.177Z,26.07
2019-01-21T12:27:23.853Z,25.13
2019-01-21T12:30:11.469Z,25.50
2019-01-21T12:32:57.484Z,25.30
2019-01-21T12:35:35.841Z,24.73
2019-01-21T12:38:22.029Z,24.87
2019-01-21T12:40:51.711Z,32.87
2019-01-21T12:43:26.094Z,31.73
2019-01-21T12:45:58.434Z,27.63
2019-01-21T12:48:28.112Z,29.57
2019-01-21T12:51:11.305Z,32.30
2019-01-21T12:53:43.888Z,28.93
2019-01-21T12:56:33.580Z,34.97
2019-01-21T12:59:03.280Z,30.67
2019-01-21T13:01:33.285Z,30.47
2019-01-21T13:04:03.000Z,30.30
2019-01-21T13:06:32.721Z,29.07
2019-01-21T13:09:31.737Z,28.30
2019-01-21T13:12:01.401Z,30.00
2019-01-21T13:14:33.801Z,28.27
2019-01-21T13:17:03.552Z,28.50
2019-01-21T13:19:38.917Z,28.20
2019-01-21T13:22:28.466Z,25.80
2019-01-21T13:25:30.803Z,27.60
2019-01-21T13:28:20.787Z,27.47
2019-01-21T13:30:53.679Z,26.80
2019-01-21T13:33:35.427Z,26.37
2019-01-21T13:36:11.176Z,27.07
2019-01-21T13:39:11.348Z,25.97
2019-01-21T13:41:42.910Z,25.63
2019-01-21T13:44:14.488Z,28.53
2019-01-21T13:47:00.835Z,28.40
2019-01-21T13:49:30.535Z,28.23
2019-01-21T13:52:17.045Z,29.20
2019-01-21T13:54:54.541Z,28.77
2019-01-21T13:57:24.257Z,33.03
2019-01-21T13:59:53.949Z,26.07
2019-01-21T14:02:23.670Z,28.80
2019-01-21T14:04:56.276Z,28.77
2019-01-21T14:07:31.658Z,30.97
2019-01-21T14:10:06.272Z,29.87
2019-01-21T14:12:41.705Z,28.57
2019-01-21T14:15:22.083Z,29.90
2019-01-21T14:18:12.999Z,27.70
2019-01-21T14:20:51.623Z,28.03
2019-01-21T14:23:41.072Z,28.60
2019-01-21T14:26:13.718Z,28.07
2019-01-21T14:28:43.383Z,27.87
2019-01-21T14:31:19.101Z,28.10
2019-01-21T14:33:48.789Z,28.43
2019-01-21T14:36:18.481Z,28.37
2019-01-21T14:38:51.203Z,28.43
2019-01-21T14:41:26.650Z,27.10
2019-01-21T14:44:18.376Z,27.07
2019-01-21T14:47:18.836Z,26.80
2019-01-21T14:49:48.873Z,26.57
2019-01-21T14:52:18.654Z,27.73
2019-01-21T14:54:50.334Z,26.13
2019-01-21T14:57:30.659Z,27.73
2019-01-21T15:00:06.359Z,27.13
2019-01-21T15:02:54.546Z,29.83
2019-01-21T15:05:31.962Z,19.87
2019-01-21T15:08:07.514Z,18.23
2019-01-21T15:10:37.248Z,14.70
2019-01-21T15:13:11.470Z,14.20
2019-01-21T15:15:47.310Z,20.03
2019-01-21T15:18:21.611Z,17.30
2019-01-21T15:20:57.499Z,18.83
2019-01-21T15:23:25.502Z,28.90
2019-01-21T15:26:27.618Z,17.57
2019-01-21T15:29:14.026Z,15.60
2019-01-21T15:31:43.801Z,16.03
2019-01-21T15:34:13.584Z,16.37
2019-01-21T15:36:59.756Z,15.73
2019-01-21T15:39:29.581Z,14.17
2019-01-21T15:42:20.687Z,14.53
2019-01-21T15:44:56.469Z,13.83
2019-01-21T15:47:43.111Z,14.57
2019-01-21T15:50:20.252Z,14.83
2019-01-21T15:52:52.846Z,14.10
2019-01-21T15:55:22.866Z,13.67
2019-01-21T15:57:55.493Z,15.03
2019-01-21T16:00:34.159Z,17.00
2019-01-21T16:03:11.672Z,16.07
2019-01-21T16:05:58.163Z,15.47
2019-01-21T16:08:27.837Z,15.77
2019-01-21T16:10:57.511Z,16.00
2019-01-21T16:13:33.184Z,16.20
2019-01-21T16:16:02.900Z,16.10
2019-01-21T16:18:34.702Z,18.03
2019-01-21T16:21:04.405Z,32.40
2019-01-21T16:23:41.781Z,29.77
2019-01-21T16:26:09.989Z,23.80
2019-01-21T16:28:41.571Z,24.53
2019-01-21T16:31:11.251Z,25.07
2019-01-21T16:33:40.959Z,25.47
2019-01-21T16:36:16.793Z,24.60
2019-01-21T16:38:48.419Z,23.70
2019-01-21T16:41:42.511Z,22.07
2019-01-21T16:44:11.167Z,21.27
2019-01-21T16:46:39.302Z,22.07
2019-01-21T16:49:08.014Z,22.03
2019-01-21T16:51:36.413Z,21.63
2019-01-21T16:54:05.062Z,21.90
2019-01-21T16:56:33.672Z,22.50
2019-01-21T16:59:02.306Z,21.37
2019-01-21T17:01:30.471Z,21.67
2019-01-21T17:03:58.935Z,22.33
2019-01-21T17:06:27.418Z,22.17
2019-01-21T17:08:55.887Z,24.03
2019-01-21T17:11:24.044Z,22.73
2019-01-21T17:13:52.170Z,22.60
2019-01-21T17:16:20.347Z,21.90
2019-01-21T17:18:48.821Z,20.30
2019-01-21T17:21:17.319Z,21.20
2019-01-21T17:23:45.891Z,19.83
2019-01-21T17:26:14.139Z,22.53
2019-01-21T17:28:42.280Z,20.80
2019-01-21T17:31:10.429Z,20.30
2019-01-21T17:33:38.880Z,19.70
2019-01-21T17:36:07.016Z,19.90
2019-01-21T17:38:35.186Z,19.07
2019-01-21T17:41:03.869Z,18.90
2019-01-21T17:43:33.268Z,20.20
2019-01-21T17:46:01.860Z,21.37
2019-01-21T17:48:30.324Z,20.33
2019-01-21T17:50:58.503Z,21.43
2019-01-21T17:53:26.643Z,21.40
2019-01-21T17:55:54.779Z,21.17
2019-01-21T17:58:22.957Z,22.43
2019-01-21T18:00:51.177Z,19.20
2019-01-21T18:03:19.674Z,20.50
2019-01-21T18:05:48.108Z,18.37
2019-01-21T18:08:16.255Z,18.97
2019-01-21T18:10:44.820Z,20.37
2019-01-21T18:13:13.328Z,20.43
2019-01-21T18:15:41.485Z,19.10
2019-01-21T18:18:09.647Z,19.80
2019-01-21T18:20:37.800Z,20.20
2019-01-21T18:23:06.271Z,20.27
2019-01-21T18:25:34.754Z,21.10
2019-01-21T18:28:03.319Z,20.03
2019-01-21T18:30:31.948Z,20.27
2019-01-21T18:33:00.160Z,20.73
2019-01-21T18:35:28.395Z,21.67
2019-01-21T18:37:57.499Z,20.80
2019-01-21T18:40:25.676Z,20.57
2019-01-21T18:42:53.875Z,22.07
2019-01-21T18:45:25.536Z,20.10
2019-01-21T18:47:54.282Z,21.03
2019-01-21T18:50:22.426Z,20.13
2019-01-21T18:52:51.154Z,20.37
2019-01-21T18:55:19.974Z,20.17
2019-01-21T18:57:48.153Z,20.43
2019-01-21T19:00:17.852Z,20.37
2019-01-21T19:02:45.988Z,20.97
2019-01-21T19:05:14.215Z,21.43
2019-01-21T19:07:42.369Z,22.07
2019-01-21T19:10:11.719Z,22.03
2019-01-21T19:12:40.194Z,21.83
2019-01-21T19:15:12.777Z,21.70
2019-01-21T19:17:40.923Z,21.83
2019-01-21T19:20:13.027Z,21.77
2019-01-21T19:22:41.174Z,22.00
2019-01-21T19:25:10.506Z,21.77
2019-01-21T19:27:38.933Z,20.60
2019-01-21T19:30:08.951Z,22.10
2019-01-21T19:32:37.108Z,21.47
2019-01-21T19:35:07.934Z,22.47
2019-01-21T19:37:36.172Z,21.23
2019-01-21T19:40:05.864Z,20.90
2019-01-21T19:42:34.438Z,20.97
2019-01-21T19:45:03.415Z,22.27
2019-01-21T19:47:31.575Z,21.40
2019-01-21T19:50:00.088Z,21.63
2019-01-21T19:52:28.664Z,21.53
2019-01-21T19:54:57.150Z,21.33
2019-01-21T19:57:25.408Z,20.87
2019-01-21T19:59:53.570Z,21.83
2019-01-21T20:02:22.039Z,20.17
2019-01-21T20:04:50.540Z,21.20
2019-01-21T20:07:18.764Z,21.50
2019-01-21T20:09:47.269Z,20.10
2019-01-21T20:12:15.490Z,20.90
2019-01-21T20:14:43.669Z,19.83
2019-01-21T20:17:12.141Z,21.77
2019-01-21T20:19:40.327Z,21.10
2019-01-21T20:22:09.022Z,21.03
2019-01-21T20:24:37.528Z,20.57
2019-01-21T20:27:05.691Z,20.77
2019-01-21T20:29:33.866Z,20.00
2019-01-21T20:32:02.076Z,19.97
2019-01-21T20:34:30.490Z,21.30
2019-01-21T20:36:58.656Z,20.83
2019-01-21T20:39:27.151Z,19.47
2019-01-21T20:41:55.655Z,20.50
2019-01-21T20:44:24.501Z,19.37
2019-01-21T20:46:52.647Z,20.17
2019-01-21T20:49:20.807Z,21.20
2019-01-21T20:51:48.954Z,21.23
2019-01-21T20:54:17.419Z,20.80
2019-01-21T20:56:45.925Z,21.27
2019-01-21T20:59:14.417Z,20.53
2019-01-21T21:01:43.063Z,20.83
2019-01-21T21:04:11.618Z,21.10
2019-01-21T21:06:39.858Z,20.20
2019-01-21T21:09:08.118Z,21.83
2019-01-21T21:11:36.262Z,22.50
2019-01-21T21:14:05.150Z,21.27
2019-01-21T21:16:33.289Z,22.40
2019-01-21T21:19:02.109Z,20.97
2019-01-21T21:21:30.309Z,21.47
2019-01-21T21:23:58.787Z,20.67
2019-01-21T21:26:26.996Z,19.80
2019-01-21T21:28:55.238Z,21.80
2019-01-21T21:31:23.381Z,20.67
2019-01-21T21:33:51.978Z,21.73
2019-01-21T21:36:20.533Z,20.67
2019-01-21T21:38:49.322Z,20.70
2019-01-21T21:41:17.816Z,22.00
2019-01-21T21:43:46.397Z,22.67
2019-01-21T21:46:14.960Z,23.43
2019-01-21T21:48:43.528Z,20.67
2019-01-21T21:51:11.666Z,21.47
2019-01-21T21:53:39.838Z,21.97
2019-01-21T21:56:08.404Z,21.87
2019-01-21T21:58:36.884Z,23.00
2019-01-21T22:01:05.684Z,23.37
2019-01-21T22:03:33.857Z,22.90
2019-01-21T22:06:02.816Z,21.90
2019-01-21T22:08:31.310Z,22.17
2019-01-21T22:10:59.801Z,21.67
2019-01-21T22:13:28.047Z,22.33
2019-01-21T22:15:56.297Z,23.90
2019-01-21T22:18:24.541Z,23.43
2019-01-21T22:20:52.703Z,22.60
2019-01-21T22:23:21.256Z,23.73
2019-01-21T22:25:50.079Z,22.23
2019-01-21T22:28:18.289Z,24.57
2019-01-21T22:30:46.464Z,23.40
2019-01-21T22:33:14.981Z,22.93
2019-01-21T22:35:43.623Z,22.77
2019-01-21T22:38:11.871Z,23.07
2019-01-21T22:40:40.095Z,22.73
2019-01-21T22:43:08.597Z,22.40
2019-01-21T22:45:36.801Z,22.57
2019-01-21T22:48:04.985Z,23.03
2019-01-21T22:50:33.209Z,23.33
2019-01-21T22:53:01.373Z,22.90
2019-01-21T22:55:31.065Z,23.30
2019-01-21T22:57:59.325Z,23.43
2019-01-21T23:00:42.272Z,23.77
2019-01-21T23:03:11.380Z,24.07
2019-01-21T23:05:39.630Z,22.57
2019-01-21T23:08:07.901Z,22.33
2019-01-21T23:10:36.690Z,22.93
2019-01-21T23:13:05.439Z,25.07
2019-01-21T23:15:33.716Z,23.53
2019-01-21T23:18:04.354Z,24.00
2019-01-21T23:20:32.728Z,24.10
2019-01-21T23:23:00.861Z,24.27
2019-01-21T23:25:29.381Z,24.37
2019-01-21T23:27:57.536Z,23.43
2019-01-21T23:30:26.045Z,22.90
2019-01-21T23:32:54.217Z,23.97
2019-01-21T23:35:23.092Z,24.27
2019-01-21T23:37:52.297Z,23.03
2019-01-21T23:40:20.858Z,23.20
2019-01-21T23:42:49.362Z,22.67
2019-01-21T23:45:17.565Z,23.40
2019-01-21T23:47:46.090Z,22.17
2019-01-21T23:50:14.977Z,22.53
2019-01-21T23:52:43.635Z,21.97
2019-01-21T23:55:13.739Z,21.93
2019-01-21T23:57:42.276Z,23.00
